Time;durP1;ratioP1;P1;durP2;ratioP2;P2;SDS_P1;SDS_P2;PMS_P1;PMS_P2;Temp;Humidity;BMP_temperature;BMP_pressure;BME280_temperature;BME280_humidity;BME280_pressure;Samples;Min_cycle;Max_cycle;Signal;HPM_P1;HPM_P2
2022/11/27 00:01:40;;;;;;;18.00;7.82;;;;;;;;;;5068688;28;20056;-78
2022/11/27 00:04:09;;;;;;;19.52;7.10;;;;;;;;;;5063922;28;20041;-77
2022/11/27 00:06:38;;;;;;;15.50;7.05;;;;;;;;;;5066979;28;20037;-78
2022/11/27 00:09:08;;;;;;;13.85;6.80;;;;;;;;;;5068990;28;20095;-78
2022/11/27 00:11:34;;;;;;;14.93;6.82;;;;;;;;;;5064472;28;20034;-78
2022/11/27 00:14:00;;;;;;;15.75;6.80;;;;;;;;;;5066159;28;20115;-77
2022/11/27 00:16:30;;;;;;;16.58;6.50;;;;;;;;;;5066212;28;20033;-77
2022/11/27 00:19:03;;;;;;;20.33;7.88;;;;;;;;;;5062518;28;20033;-78
2022/11/27 00:21:30;;;;;;;18.55;7.30;;;;;;;;;;5061503;28;20051;-77
2022/11/27 00:23:57;;;;;;;13.57;6.82;;;;;;;;;;5066037;28;20475;-77
2022/11/27 00:26:23;;;;;;;18.35;7.53;;;;;;;;;;5068410;28;20111;-77
2022/11/27 00:28:50;;;;;;;14.93;5.95;;;;;;;;;;5068353;28;20440;-77
2022/11/27 00:31:17;;;;;;;17.77;6.78;;;;;;;;;;5067162;28;20064;-77
2022/11/27 00:33:43;;;;;;;20.25;6.40;;;;;;;;;;5067946;28;20194;-78
2022/11/27 00:36:09;;;;;;;17.90;7.22;;;;;;;;;;5059463;28;20129;-78
2022/11/27 00:38:37;;;;;;;19.85;8.57;;;;;;;;;;5067489;28;20052;-77
2022/11/27 00:41:19;;;;;;;22.25;7.20;;;;;;;;;;5067947;28;20032;-77
2022/11/27 00:43:46;;;;;;;16.98;7.40;;;;;;;;;;5067489;28;21025;-78
2022/11/27 00:46:13;;;;;;;17.85;5.38;;;;;;;;;;5061757;28;20028;-77
2022/11/27 00:48:39;;;;;;;15.75;6.47;;;;;;;;;;5064473;28;20049;-78
2022/11/27 00:51:06;;;;;;;21.52;7.55;;;;;;;;;;5068241;28;20044;-78
2022/11/27 00:53:33;;;;;;;11.35;6.03;;;;;;;;;;5067087;28;20032;-77
2022/11/27 00:55:59;;;;;;;19.02;6.97;;;;;;;;;;5058748;28;20029;-78
2022/11/27 00:58:25;;;;;;;17.00;7.03;;;;;;;;;;5063813;28;20029;-77
2022/11/27 01:00:55;;;;;;;15.68;5.57;;;;;;;;;;5062342;28;20076;-77
2022/11/27 01:03:21;;;;;;;14.85;6.65;;;;;;;;;;5062114;28;20058;-77
2022/11/27 01:05:47;;;;;;;12.45;5.68;;;;;;;;;;5066430;28;20036;-77
2022/11/27 01:08:16;;;;;;;18.77;6.03;;;;;;;;;;5068524;28;20042;-77
2022/11/27 01:10:55;;;;;;;16.33;6.22;;;;;;;;;;5059333;28;20032;-77
2022/11/27 01:13:28;;;;;;;14.88;6.07;;;;;;;;;;5064932;28;20055;-77
2022/11/27 01:15:58;;;;;;;10.05;6.32;;;;;;;;;;5061643;28;20036;-77
2022/11/27 01:18:24;;;;;;;11.45;5.35;;;;;;;;;;5066850;28;20364;-78
2022/11/27 01:20:54;;;;;;;13.75;5.10;;;;;;;;;;5066083;28;20081;-77
2022/11/27 01:23:20;;;;;;;14.27;6.05;;;;;;;;;;5065109;28;20032;-77
2022/11/27 01:25:47;;;;;;;10.25;4.43;;;;;;;;;;5065270;28;20647;-77
2022/11/27 01:28:13;;;;;;;13.52;6.15;;;;;;;;;;5066133;28;20035;-78
2022/11/27 01:30:39;;;;;;;14.43;6.15;;;;;;;;;;5065140;28;20025;-77
2022/11/27 01:33:04;;;;;;;12.05;5.65;;;;;;;;;;5066324;28;20372;-77
2022/11/27 01:35:33;;;;;;;16.25;5.53;;;;;;;;;;5067086;28;20037;-76
2022/11/27 01:37:59;;;;;;;14.40;6.20;;;;;;;;;;5066041;28;20376;-76
2022/11/27 01:40:25;;;;;;;10.20;5.65;;;;;;;;;;5065762;28;20044;-76
2022/11/27 01:42:51;;;;;;;14.82;4.93;;;;;;;;;;5063742;28;20020;-76
2022/11/27 01:45:18;;;;;;;11.80;5.18;;;;;;;;;;5059115;28;20025;-76
2022/11/27 01:47:47;;;;;;;9.63;4.90;;;;;;;;;;5066378;28;20089;-77
2022/11/27 01:50:16;;;;;;;10.48;4.80;;;;;;;;;;5066805;28;20047;-77
2022/11/27 01:52:44;;;;;;;13.50;5.32;;;;;;;;;;5064946;28;20475;-77
2022/11/27 01:55:17;;;;;;;12.45;5.15;;;;;;;;;;5061180;28;20481;-77
2022/11/27 01:57:46;;;;;;;14.20;5.03;;;;;;;;;;5062363;28;20151;-77
2022/11/27 02:00:13;;;;;;;11.88;4.80;;;;;;;;;;5064547;28;20028;-77
2022/11/27 02:02:40;;;;;;;11.80;4.82;;;;;;;;;;5060060;28;20027;-77
2022/11/27 02:05:06;;;;;;;10.27;4.88;;;;;;;;;;5055332;28;20079;-77
2022/11/27 02:07:32;;;;;;;10.45;5.10;;;;;;;;;;5056533;28;20051;-77
2022/11/27 02:09:58;;;;;;;10.15;4.97;;;;;;;;;;5063316;28;20041;-77
2022/11/27 02:12:37;;;;;;;8.63;4.65;;;;;;;;;;5056575;28;20116;-77
2022/11/27 02:15:08;;;;;;;7.78;4.35;;;;;;;;;;5065607;28;20033;-77
2022/11/27 02:17:37;;;;;;;10.73;4.57;;;;;;;;;;5064358;28;20039;-77
2022/11/27 02:20:12;;;;;;;7.85;3.83;;;;;;;;;;5057810;28;20029;-77
2022/11/27 02:22:48;;;;;;;8.32;4.75;;;;;;;;;;5063134;28;20107;-77
2022/11/27 02:25:24;;;;;;;9.50;4.93;;;;;;;;;;5062102;28;20048;-77
2022/11/27 02:28:01;;;;;;;8.75;4.10;;;;;;;;;;5067226;28;20149;-77
2022/11/27 02:30:29;;;;;;;9.00;4.25;;;;;;;;;;5066817;28;20056;-77
2022/11/27 02:32:59;;;;;;;9.75;4.40;;;;;;;;;;5064757;28;20044;-77
2022/11/27 02:35:33;;;;;;;9.88;3.92;;;;;;;;;;5060967;28;20032;-78
2022/11/27 02:38:06;;;;;;;9.15;4.65;;;;;;;;;;5066524;28;20028;-78
2022/11/27 02:40:42;;;;;;;6.03;3.65;;;;;;;;;;5064218;28;20029;-78
2022/11/27 02:43:11;;;;;;;10.75;4.88;;;;;;;;;;5066746;28;20061;-78
2022/11/27 02:45:40;;;;;;;7.97;4.10;;;;;;;;;;5063403;28;20081;-78
2022/11/27 02:48:06;;;;;;;8.05;4.10;;;;;;;;;;5065736;28;20032;-78
2022/11/27 02:50:34;;;;;;;7.93;4.07;;;;;;;;;;5065095;28;20048;-78
2022/11/27 02:53:02;;;;;;;6.88;4.13;;;;;;;;;;5065075;28;20165;-78
2022/11/27 02:55:32;;;;;;;9.55;4.45;;;;;;;;;;5062798;28;20036;-78
2022/11/27 02:58:01;;;;;;;12.57;4.18;;;;;;;;;;5057804;28;20021;-78
2022/11/27 03:00:28;;;;;;;8.07;3.92;;;;;;;;;;5066529;28;20063;-78
2022/11/27 03:03:00;;;;;;;7.43;3.97;;;;;;;;;;5070911;28;20028;-78
2022/11/27 03:05:28;;;;;;;11.32;3.65;;;;;;;;;;5069003;28;20032;-77
2022/11/27 03:08:09;;;;;;;7.22;3.88;;;;;;;;;;5063063;28;20405;-78
2022/11/27 03:10:47;;;;;;;8.35;4.57;;;;;;;;;;5070224;28;20434;-78
2022/11/27 03:13:14;;;;;;;10.48;4.53;;;;;;;;;;5068135;28;20062;-78
2022/11/27 03:15:44;;;;;;;9.93;5.20;;;;;;;;;;5069874;28;20036;-78
2022/11/27 03:18:13;;;;;;;12.35;4.70;;;;;;;;;;5058692;28;20029;-78
2022/11/27 03:20:42;;;;;;;8.15;4.18;;;;;;;;;;5065492;28;20035;-78
2022/11/27 03:23:08;;;;;;;10.43;4.60;;;;;;;;;;5069791;28;20044;-78
2022/11/27 03:25:34;;;;;;;9.38;3.75;;;;;;;;;;5067728;28;20955;-78
2022/11/27 03:28:05;;;;;;;9.30;4.40;;;;;;;;;;5066932;28;20040;-78
2022/11/27 03:30:31;;;;;;;9.63;4.18;;;;;;;;;;5066946;28;20082;-78
2022/11/27 03:32:57;;;;;;;7.38;4.40;;;;;;;;;;5059290;28;20041;-78
2022/11/27 03:35:25;;;;;;;11.15;4.88;;;;;;;;;;5069595;28;20049;-78
2022/11/27 03:37:52;;;;;;;9.18;4.90;;;;;;;;;;5066419;28;20024;-78
2022/11/27 03:40:18;;;;;;;8.18;4.03;;;;;;;;;;5068724;28;20031;-78
2022/11/27 03:42:44;;;;;;;8.65;4.22;;;;;;;;;;5068574;28;20116;-78
2022/11/27 03:45:27;;;;;;;9.07;3.97;;;;;;;;;;5068788;28;20455;-78
2022/11/27 03:48:11;;;;;;;12.43;5.30;;;;;;;;;;5067073;28;20392;-78
2022/11/27 03:50:45;;;;;;;15.48;5.30;;;;;;;;;;5064186;28;20097;-78
2022/11/27 03:53:14;;;;;;;9.63;5.07;;;;;;;;;;5058851;28;20029;-78
2022/11/27 03:55:51;;;;;;;10.93;5.47;;;;;;;;;;5064446;28;20059;-78
2022/11/27 03:58:22;;;;;;;8.88;4.95;;;;;;;;;;5064455;28;20416;-78
2022/11/27 04:00:50;;;;;;;9.90;5.47;;;;;;;;;;5066724;28;20420;-78
2022/11/27 04:03:21;;;;;;;12.75;5.20;;;;;;;;;;5067819;28;20024;-78
2022/11/27 04:05:47;;;;;;;;;;;;;;;;;;5068509;28;20047;-78
2022/11/27 04:08:13;;;;;;;10.18;3.83;;;;;;;;;;5069407;28;20363;-78
2022/11/27 04:10:39;;;;;;;10.55;4.90;;;;;;;;;;5060669;28;21740;-78
2022/11/27 04:13:05;;;;;;;11.30;4.65;;;;;;;;;;5066981;28;20020;-78
2022/11/27 04:15:31;;;;;;;8.15;5.13;;;;;;;;;;5067612;28;20025;-78
2022/11/27 04:17:57;;;;;;;10.18;4.93;;;;;;;;;;5069012;28;20032;-78
2022/11/27 04:20:23;;;;;;;8.18;4.72;;;;;;;;;;5059965;28;20104;-78
2022/11/27 04:22:48;;;;;;;10.60;5.45;;;;;;;;;;5069767;28;20048;-77
2022/11/27 04:25:14;;;;;;;17.85;5.65;;;0.20;99.90;;;;;;5062311;28;20079;-78
2022/11/27 04:27:40;;;;;;;12.68;5.28;;;;;;;;;;5064851;28;20135;-78
2022/11/27 04:30:06;;;;;;;11.55;5.63;;;;;;;;;;5066620;28;20029;-78
2022/11/27 04:32:32;;;;;;;11.13;5.00;;;;;;;;;;5055957;28;20036;-78
2022/11/27 04:34:58;;;;;;;14.23;5.40;;;;;;;;;;5067054;28;20572;-78
2022/11/27 04:37:24;;;;;;;8.00;4.57;;;;;;;;;;5068111;28;20252;-77
2022/11/27 04:39:50;;;;;;;7.75;4.32;;;;;;;;;;5067649;28;20039;-78
2022/11/27 04:42:15;;;;;;;9.52;4.97;;;;;;;;;;5065577;28;20040;-78
2022/11/27 04:44:44;;;;;;;10.98;4.55;;;;;;;;;;5065823;28;20021;-78
2022/11/27 04:47:10;;;;;;;12.43;4.28;;;;;;;;;;5058058;28;20105;-78
2022/11/27 04:49:36;;;;;;;8.52;4.43;;;;;;;;;;5067762;28;20131;-78
2022/11/27 04:52:02;;;;;;;11.98;4.80;;;;;;;;;;5057700;28;20037;-78
2022/11/27 04:54:28;;;;;;;9.88;4.25;;;;;;;;;;5064353;28;20021;-78
2022/11/27 04:56:54;;;;;;;6.38;4.00;;;;;;;;;;5066516;28;20031;-77
2022/11/27 04:59:21;;;;;;;12.48;4.93;;;;;;;;;;5060967;28;20048;-77
2022/11/27 05:01:47;;;;;;;9.65;3.95;;;;;;;;;;5058410;28;20462;-77
2022/11/27 05:04:13;;;;;;;7.43;3.88;;;;;;;;;;5057522;28;20116;-77
2022/11/27 05:06:39;;;;;;;8.73;4.25;;;;;;;;;;5062434;28;20172;-77
2022/11/27 05:09:04;;;;;;;8.80;4.07;;;;;;;;;;5061217;28;20105;-77
2022/11/27 05:11:30;;;;;;;6.72;3.78;;;;;;;;;;5067545;28;20463;-77
2022/11/27 05:16:46;;;;;;;11.30;4.57;;;;;;;;;;5065208;28;20508;-80
2022/11/27 05:19:13;;;;;;;6.33;3.90;;;;;;;;;;5066753;28;20017;-75
2022/11/27 05:21:39;;;;;;;7.88;4.25;;;;;;;;;;5061491;28;20021;-77
2022/11/27 05:24:05;;;;;;;8.23;3.80;;;;;;;;;;5067618;28;20025;-78
2022/11/27 05:26:31;;;;;;;6.75;4.18;;;;;;;;;;5065791;28;20040;-78
2022/11/27 05:28:57;;;;;;;8.63;3.95;;;;;;;;;;5070169;28;20025;-78
2022/11/27 05:31:23;;;;;;;8.20;4.53;;;;;;;;;;5066738;28;20017;-79
2022/11/27 05:33:49;;;;;;;8.55;4.63;;;;;;;;;;5064601;28;20522;-79
2022/11/27 05:36:15;;;;;;;7.63;3.63;;;;;;;;;;5066547;28;20025;-77
2022/11/27 05:38:41;;;;;;;7.95;3.90;;;;;;;;;;5065676;28;20054;-77
2022/11/27 05:41:07;;;;;;;10.70;4.93;;;;;;;;;;5064183;28;20648;-77
2022/11/27 05:43:33;;;;;;;7.53;3.63;;;;;;;;;;5065420;28;20032;-77
2022/11/27 05:45:59;;;;;;;8.27;4.00;;;;;;;;;;5064985;28;20025;-77
2022/11/27 05:48:25;;;;;;;9.90;4.63;;;;;;;;;;5058413;28;20040;-77
2022/11/27 05:50:51;;;;;;;8.20;3.80;;;;;;;;;;5066966;28;20090;-78
2022/11/27 05:53:16;;;;;;;10.00;3.83;;;;;;;;;;5066210;28;20043;-78
2022/11/27 05:55:42;;;;;;;7.22;4.07;;;;;;;;;;5066302;28;20035;-79
2022/11/27 05:58:08;;;;;;;7.43;3.75;;;;;;;;;;5063718;28;20020;-78
2022/11/27 06:00:34;;;;;;;7.45;3.85;;;;;;;;;;5063598;28;20051;-78
2022/11/27 06:03:00;;;;;;;9.63;4.63;;;;;;;;;;5068118;28;20025;-78
2022/11/27 06:05:26;;;;;;;5.78;3.85;;;;;;;;;;5061761;28;20041;-78
2022/11/27 06:07:52;;;;;;;7.45;3.90;;;;;;;;;;5052564;28;20025;-78
2022/11/27 06:10:18;;;;;;;8.13;4.40;;;;;;;;;;5064469;28;20029;-78
2022/11/27 06:12:43;;;;;;;8.65;4.13;;;;;;;;;;5065973;28;20779;-77
2022/11/27 06:15:09;;;;;;;9.93;4.50;;;;;;;;;;5059463;28;20067;-76
2022/11/27 06:17:35;;;;;;;8.10;4.35;;;;;;;;;;5064967;28;20024;-75
2022/11/27 06:20:01;;;;;;;11.15;5.22;;;;;;;;;;5053190;28;20024;-79
2022/11/27 06:22:27;;;;;;;10.88;4.93;;;;;;;;;;5066524;28;20025;-78
2022/11/27 06:24:53;;;;;;;8.52;4.25;;;;;;;;;;5065931;28;20120;-78
2022/11/27 06:27:19;;;;;;;8.10;4.57;;;;;;;;;;5064615;28;20112;-78
2022/11/27 06:29:45;;;;;;;8.30;4.10;;;;;;;;;;5059714;28;20016;-77
2022/11/27 06:32:11;;;;;;;8.20;4.30;;;;;;;;;;5070456;28;20035;-79
2022/11/27 06:34:37;;;;;;;11.52;4.82;;;;;;;;;;5070429;28;20114;-78
2022/11/27 06:37:03;;;;;;;11.60;4.65;;;;;;;;;;5069390;28;20023;-79
2022/11/27 06:39:29;;;;;;;14.18;4.90;;;;;;;;;;5065401;28;20245;-76
2022/11/27 06:41:55;;;;;;;11.30;4.50;;;;;;;;;;5058768;28;20535;-77
2022/11/27 06:44:21;;;;;;;7.20;4.03;;;;;;;;;;5069870;28;20012;-79
2022/11/27 06:46:47;;;;;;;10.20;4.40;;;;;;;;;;5068613;28;20048;-77
2022/11/27 06:49:12;;;;;;;11.70;4.43;;;;;;;;;;5069343;28;20483;-78
2022/11/27 06:51:38;;;;;;;8.82;4.35;;;;;;;;;;5069487;28;20021;-78
2022/11/27 06:54:04;;;;;;;7.22;3.72;;;;;;;;;;5068433;28;20033;-77
2022/11/27 06:56:31;;;;;;;7.72;4.60;;;;;;;;;;5071202;28;20020;-76
2022/11/27 06:58:58;;;;;;;8.25;4.10;;;;;;;;;;5057898;28;20044;-77
2022/11/27 07:01:25;;;;;;;10.18;4.00;;;;;;;;;;5063250;28;20013;-78
2022/11/27 07:03:51;;;;;;;9.10;3.97;;;;;;;;;;5061660;28;20546;-79
2022/11/27 07:06:21;;;;;;;6.18;3.92;;;;;;;;;;5069952;28;20062;-78
2022/11/27 07:08:47;;;;;;;14.10;4.82;;;;;;;;;;5071185;28;20028;-78
2022/11/27 07:11:14;;;;;;;6.90;4.30;;;;;;;;;;5064844;28;20024;-78
2022/11/27 07:13:43;;;;;;;7.75;4.15;;;;;;;;;;5064501;28;20033;-78
2022/11/27 07:16:10;;;;;;;12.75;4.50;;;;;;;;;;5070021;28;20395;-79
2022/11/27 07:18:59;;;;;;;9.32;4.43;;;;;;;;;;5067532;28;20394;-77
2022/11/27 07:21:25;;;;;;;12.75;4.10;;;;;;;;;;5062528;28;20016;-75
2022/11/27 07:23:51;;;;;;;12.88;4.82;;;;;;;;;;5063023;28;20034;-76
2022/11/27 07:26:18;;;;;;;14.45;4.35;;;;;;;;;;5070611;28;20024;-76
2022/11/27 07:28:45;;;;;;;8.82;4.45;;;;;;;;;;5056295;28;20033;-76
2022/11/27 07:31:12;;;;;;;10.75;4.70;;;;;;;;;;5066774;28;20102;-78
2022/11/27 07:33:38;;;;;;;12.10;4.50;;;;;;;;;;5064612;28;20116;-78
2022/11/27 07:36:10;;;;;;;12.23;4.93;;;;;;;;;;5060178;28;20111;-77
2022/11/27 07:38:36;;;;;;;10.32;4.53;;;;;;;;;;5064698;28;20037;-77
2022/11/27 07:41:03;;;;;;;12.15;4.88;;;;;;;;;;5065141;28;20051;-79
2022/11/27 07:43:29;;;;;;;16.02;4.80;;;;;;;;;;5061169;28;20542;-79
2022/11/27 07:45:56;;;;;;;9.60;4.95;;;;;;;;;;5063359;28;20033;-77
2022/11/27 07:48:22;;;;;;;10.77;4.65;;;;;;;;;;5063699;28;20037;-81
2022/11/27 07:50:47;;;;;;;10.43;5.10;;;;;;;;;;5061611;28;20036;-76
2022/11/27 07:53:13;;;;;;;11.63;5.35;;;;;;;;;;5070498;28;20024;-75
2022/11/27 07:55:40;;;;;;;11.63;4.93;;;;;;;;;;5066844;28;20029;-76
2022/11/27 07:58:06;;;;;;;15.40;5.10;;;;;;;;;;5065989;28;20070;-76
2022/11/27 08:00:33;;;;;;;8.77;4.72;;;;;;;;;;5067806;28;20028;-77
2022/11/27 08:02:59;;;;;;;13.13;5.45;;;;;;;;;;5068000;28;20056;-76
2022/11/27 08:05:25;;;;;;;10.88;5.18;;;;;;;;;;5057430;28;20151;-77
2022/11/27 08:07:51;;;;;;;10.32;4.50;;;;;;;;;;5066198;28;20554;-77
2022/11/27 08:10:17;;;;;;;11.80;5.00;;;;;;;;;;5064763;28;20518;-76
2022/11/27 08:12:43;;;;;;;11.55;5.13;;;;;;;;;;5058558;28;20028;-76
2022/11/27 08:15:09;;;;;;;9.88;4.80;;;;;;;;;;5067438;28;20024;-77
2022/11/27 08:17:35;;;;;;;8.68;5.10;;;;;;;;;;5064540;28;20063;-86
2022/11/27 08:20:01;;;;;;;9.90;5.63;;;;;;;;;;5058813;28;20591;-77
2022/11/27 08:22:27;;;;;;;9.15;4.90;;;;;;;;;;5064553;28;20033;-78
2022/11/27 08:24:56;;;;;;;8.35;4.68;;;;;;;;;;5067307;28;20074;-77
2022/11/27 08:27:22;;;;;;;9.10;4.57;;;;;;;;;;5067330;28;20028;-77
2022/11/27 08:29:48;;;;;;;9.02;4.53;;;;;;;;;;5066654;28;20023;-77
2022/11/27 08:32:14;;;;;;;12.88;4.68;;;;;;;;;;5065038;28;20487;-77
2022/11/27 08:34:40;;;;;;;14.63;5.65;;;;;;;;;;5058281;28;20159;-78
2022/11/27 08:37:06;;;;;;;10.43;5.05;;;;;;;;;;5054677;28;20083;-77
2022/11/27 08:39:32;;;;;;;16.77;5.03;;;;;;;;;;5063188;28;20169;-76
2022/11/27 08:41:58;;;;;;;9.68;4.57;;;;;;;;;;5063090;28;20035;-78
2022/11/27 08:44:24;;;;;;;10.15;4.95;;;;;;;;;;5066648;28;20115;-77
2022/11/27 08:46:50;;;;;;;11.63;4.80;;;;;;;;;;5064974;28;20020;-77
2022/11/27 08:49:16;;;;;;;8.13;4.25;;;;;;;;;;5065033;28;20076;-77
2022/11/27 08:51:42;;;;;;;16.40;5.13;;;;;;;;;;5062232;28;20143;-77
2022/11/27 08:54:08;;;;;;;15.15;4.20;;;;;;;;;;5069242;28;20111;-76
2022/11/27 08:56:34;;;;;;;12.13;4.95;;;;;;;;;;5062748;28;20035;-76
2022/11/27 08:59:02;;;;;;;11.60;5.43;;;;;;;;;;5063082;28;20064;-76
2022/11/27 09:01:29;;;;;;;14.15;4.97;;;;;;;;;;5063595;28;20090;-76
2022/11/27 09:03:55;;;;;;;12.10;4.30;;;;;;;;;;5063741;28;20051;-76
2022/11/27 09:06:23;;;;;;;11.55;4.65;;;;;;;;;;5064793;28;20028;-76
2022/11/27 09:08:49;;;;;;;14.18;5.38;;;;;;;;;;5066782;28;20024;-79
2022/11/27 09:11:16;;;;;;;12.75;5.10;;;;;;;;;;5062930;28;20522;-75
2022/11/27 09:13:43;;;;;;;8.80;4.65;;;;;;;;;;5059574;28;20364;-77
2022/11/27 09:16:10;;;;;;;9.98;4.95;;;;;;;;;;5057018;28;20040;-77
2022/11/27 09:18:36;;;;;;;10.60;5.10;;;;;;;;;;5062418;28;20024;-79
2022/11/27 09:21:10;;;;;;;13.90;5.50;;;;;;;;;;5062364;28;20437;-76
2022/11/27 09:23:41;;;;;;;8.07;4.10;;;;;;;;;;5061072;28;20024;-77
2022/11/27 09:26:07;;;;;;;;;;;;;;;;;;5059536;28;20391;-77
2022/11/27 09:28:33;;;;;;;8.10;4.72;;;;;;;;;;5067345;28;19909;-76
2022/11/27 09:31:00;;;;;;;7.65;4.60;;;;;;;;;;5066187;28;20391;-77
2022/11/27 09:33:27;;;;;;;6.60;4.20;;;;;;;;;;5061226;28;20051;-76
2022/11/27 09:35:53;;;;;;;17.00;5.72;;;;;;;;;;5056574;28;20032;-76
2022/11/27 09:38:19;;;;;;;8.73;5.10;;;;;;;;;;5053591;28;20041;-76
2022/11/27 09:40:58;;;;;;;9.88;4.85;;;;;;;;;;5059417;28;20035;-76
2022/11/27 09:43:34;;;;;;;8.90;4.80;;;;;;;;;;5056926;28;20028;-76
2022/11/27 09:46:07;;;;;;;11.32;5.28;;;;;;;;;;5063972;28;20743;-75
2022/11/27 09:48:36;;;;;;;12.02;4.97;;;;;;;;;;5060981;28;20122;-75
2022/11/27 09:51:04;;;;;;;13.85;4.75;;;;;;;;;;5062583;28;20037;-75
2022/11/27 09:53:43;;;;;;;7.72;4.60;;;;;;;;;;5067216;28;20082;-75
2022/11/27 09:56:12;;;;;;;11.55;5.60;;;;;;;;;;5060325;28;20028;-74
2022/11/27 09:58:42;;;;;;;11.18;4.28;;;;;;;;;;5067975;28;20024;-75
2022/11/27 10:01:11;;;;;;;12.48;4.88;;;;;;;;;;5064225;28;20026;-75
2022/11/27 10:03:39;;;;;;;9.70;4.60;;;;;;;;;;5060213;28;20017;-75
2022/11/27 10:06:11;;;;;;;13.70;4.85;;;;;;;;;;5056242;28;20962;-75
2022/11/27 10:08:37;;;;;;;;;;;;;;;;;;5064822;28;20064;-75
2022/11/27 10:11:09;;;;;;;8.27;4.90;;;;;;;;;;5064990;28;19943;-76
2022/11/27 10:13:47;;;;;;;10.23;5.38;;;;;;;;;;5057135;28;20120;-75
2022/11/27 10:16:23;;;;;;;11.63;5.35;;;;;;;;;;5052483;28;20037;-75
2022/11/27 10:19:15;;;;;;;10.48;4.97;;;;;;;;;;5062159;28;20531;-75
2022/11/27 10:21:41;;;;;;;;;;;;;;;;;;5067337;28;20029;-75
2022/11/27 10:24:12;;;;;;;9.65;4.88;;;;;;;;;;5062673;28;20402;-75
2022/11/27 10:26:38;;;;;;;;;;;;;;;;;;5057601;28;20444;-74
2022/11/27 10:29:14;;;;;;;10.10;4.72;;;;;;;;;;5064669;28;19991;-74
2022/11/27 10:31:45;;;;;;;9.70;5.50;;;;;;;;;;5067680;28;20029;-75
2022/11/27 10:34:28;;;;;;;13.40;5.38;;;;;;;;;;5064091;28;20032;-75
2022/11/27 10:36:55;;;;;;;15.18;5.25;;;;;;;;;;5060183;28;20036;-75
2022/11/27 10:39:41;;;;;;;8.25;5.03;;;;;;;;;;5060536;28;20033;-75
2022/11/27 10:42:12;;;;;;;6.43;3.58;;;;;;;;;;5060003;28;20380;-75
2022/11/27 10:44:41;;;;;;;10.10;5.03;;;;;;;;;;5062635;28;20102;-74
2022/11/27 10:47:09;;;;;;;9.13;4.43;;;;;;;;;;5066502;28;20050;-75
2022/11/27 10:49:38;;;;;;;9.32;4.97;;;;;;;;;;5063039;28;20074;-75
2022/11/27 10:52:04;;;;;;;11.07;4.80;;;;;;;;;;5070010;28;20030;-75
2022/11/27 10:54:33;;;;;;;10.25;5.20;;;;;;;;;;5062918;28;20395;-76
2022/11/27 10:57:05;;;;;;;9.07;4.63;;;;;;;;;;5064406;28;20115;-76
2022/11/27 10:59:32;;;;;;;7.90;4.15;;;;;;;;;;5060529;28;20029;-76
2022/11/27 11:01:59;;;;;;;10.35;5.00;;;;;;;;;;5065635;28;20028;-75
2022/11/27 11:04:26;;;;;;;8.43;4.65;;;;;;;;;;5060939;28;20080;-75
2022/11/27 11:06:52;;;;;;;9.40;4.80;;;;;;;;;;5058506;28;20036;-75
2022/11/27 11:09:22;;;;;;;8.10;4.43;;;;;;;;;;5062415;28;20024;-75
2022/11/27 11:11:48;;;;;;;7.75;4.38;;;;;;;;;;5059509;28;20110;-73
2022/11/27 11:14:15;;;;;;;10.27;4.80;;;;;;;;;;5062789;28;20028;-75
2022/11/27 11:16:42;;;;;;;8.68;4.72;;;;;;;;;;5065236;28;20024;-74
2022/11/27 11:19:31;;;;;;;8.60;5.15;;;;;;;;;;5062492;28;20524;-75
2022/11/27 11:21:58;;;;;;;10.35;4.40;;;;;;;;;;5059316;28;20130;-75
2022/11/27 11:24:27;;;;;;;7.88;3.90;;;;;;;;;;5058309;28;20051;-76
2022/11/27 11:26:54;;;;;;;8.40;4.32;;;;;;;;;;5063327;28;20051;-75
2022/11/27 11:29:29;;;;;;;10.82;4.82;;;;;;;;;;5067052;28;20040;-76
2022/11/27 11:31:56;;;;;;;6.10;4.40;;;;;;;;;;5068245;28;20028;-77
2022/11/27 11:34:25;;;;;;;11.68;4.93;;;;;;;;;;5063177;28;20032;-76
2022/11/27 11:37:15;;;;;;;;;;;;;;;;;;;;;
2022/11/27 11:39:44;;;;;;;7.35;3.95;;;;;;;;;;5058162;28;20670;-73
2022/11/27 11:42:10;;;;;;;7.60;4.45;;;;;;;;;;5065656;28;20040;-74
2022/11/27 11:44:37;;;;;;;8.50;4.40;;;;;;;;;;5062854;28;20020;-74
2022/11/27 11:47:03;;;;;;;8.00;4.35;;;;;;;;;;5069164;28;20037;-72
2022/11/27 11:49:31;;;;;;;7.38;4.25;;;;;;;;;;5060310;28;20186;-72
2022/11/27 11:52:12;;;;;;;5.55;3.63;;;;;;;;;;5064352;28;20491;-73
2022/11/27 11:54:49;;;;;;;8.68;4.20;;;;;;;;;;5063566;28;20554;-73
2022/11/27 11:57:43;;;;;;;11.32;4.05;;;;;;;;;;5062500;28;20060;-74
2022/11/27 12:00:16;;;;;;;5.40;3.63;;;;;;;;;;5064721;28;20170;-71
2022/11/27 12:02:53;;;;;;;8.27;3.92;;;;;;;;;;5056291;28;20021;-73
2022/11/27 12:05:25;;;;;;;8.13;4.05;;;;;;;;;;5064540;28;20291;-72
2022/11/27 12:08:00;;;;;;;11.27;4.70;;;;;;;;;;5065939;28;20016;-74
2022/11/27 12:10:45;;;;;;;9.20;4.45;;;;;;;;;;5066417;28;20040;-75
2022/11/27 12:13:30;;;;;;;7.65;4.32;;;;;;;;;;5067083;28;20107;-73
2022/11/27 12:16:07;;;;;;;7.45;4.20;;;;;;;;;;5067487;28;20191;-77
2022/11/27 12:18:51;;;;;;;9.38;4.43;;;;;;;;;;5055459;28;21119;-73
2022/11/27 12:21:22;;;;;;;8.50;4.90;;;;;;;;;;5072090;28;20056;-74
2022/11/27 12:23:48;;;;;;;;;;;;;;;;;;5067593;28;20028;-75
2022/11/27 12:26:29;;;;;;;8.65;4.63;;;;;;;;;;5065573;28;19962;-75
2022/11/27 12:29:01;;;;;;;6.13;4.03;;;;;;;;;;5058330;28;20020;-75
2022/11/27 12:31:43;;;;;;;8.10;4.28;;;;;;;;;;5064112;28;20118;-74
2022/11/27 12:34:19;;;;;;;9.15;4.80;;;;;;;;;;5058032;28;20111;-74
2022/11/27 12:36:53;;;;;;;7.03;4.40;;;;;;;;;;5063915;28;20060;-74
2022/11/27 12:39:24;;;;;;;23.17;8.75;;;;;;;;;;5061290;28;20029;-74
2022/11/27 12:42:01;;;;;;;21.80;8.57;;;;;;;;;;5066290;28;20425;-78
2022/11/27 12:44:33;;;;;;;18.70;7.03;;;;;;;;;;5062053;28;20036;-74
2022/11/27 12:47:09;;;;;;;22.42;8.05;;;;;;;;;;5066359;28;20495;-74
2022/11/27 12:49:51;;;;;;;15.55;6.38;;;;;;;;;;5064990;28;20059;-73
2022/11/27 12:52:39;;;;;;;18.70;8.18;;;;;;;;;;5061449;28;20028;-76
2022/11/27 12:55:05;;;;;;;8.82;4.55;;;;;;;;;;5066003;28;20028;-76
2022/11/27 12:57:32;;;;;;;8.93;4.03;;;;;;;;;;5063777;28;20031;-81
2022/11/27 13:00:07;;;;;;;25.48;13.70;;;;;;;;;;5059668;28;20039;-76
2022/11/27 13:02:59;;;;;;;12.43;4.82;;;;;;;;;;5051102;28;20127;-75
2022/11/27 13:05:28;;;;;;;12.70;5.43;;;;;;;;;;5067417;28;20550;-76
2022/11/27 13:08:05;;;;;;;10.68;4.72;;;;;;;;;;5057849;28;20430;-76
2022/11/27 13:10:34;;;;;;;9.70;4.68;;;;;;;;;;5058144;28;20111;-75
2022/11/27 13:13:21;;;;;;;9.93;4.60;;;;;;;;;;5052133;28;20375;-75
2022/11/27 13:15:47;;;;;;;7.55;4.00;;;;;;;;;;5061309;28;20039;-77
2022/11/27 13:18:32;;;;;;;10.38;4.82;;;;;;;;;;5067134;28;20028;-75
2022/11/27 13:20:59;;;;;;;8.35;4.15;;;;;;;;;;5060722;28;20081;-76
2022/11/27 13:23:25;;;;;;;10.05;5.25;;;;;;;;;;5067007;28;20428;-76
2022/11/27 13:25:55;;;;;;;9.52;3.65;;;;;;;;;;5055457;28;20111;-76
2022/11/27 13:28:24;;;;;;;9.70;3.83;;;;;;;;;;5051073;28;20494;-76
2022/11/27 13:30:51;;;;;;;14.13;5.45;;;;;;;;;;5057735;28;20029;-76
2022/11/27 13:33:30;;;;;;;23.67;8.30;;;;;;;;;;5063343;28;20037;-76
2022/11/27 13:35:57;;;;;;;14.82;4.47;;;;;;;;;;5065229;28;20028;-74
2022/11/27 13:38:24;;;;;;;7.85;3.60;;;;;;;;;;5054962;28;20028;-76
2022/11/27 13:40:52;;;;;;;8.75;4.32;;;;;;;;;;5054726;28;20029;-76
2022/11/27 13:43:30;;;;;;;16.35;6.20;;;;;;;;;;5061589;28;20036;-77
2022/11/27 13:46:00;;;;;;;7.25;3.97;;;;;;;;;;5052623;28;20097;-74
2022/11/27 13:48:31;;;;;;;10.95;5.60;;;;;;;;;;5057790;28;20043;-77
2022/11/27 13:50:58;;;;;;;9.13;4.20;;;;;;;;;;5055510;28;20098;-77
2022/11/27 13:53:31;;;;;;;7.80;4.35;;;;;;;;;;5057549;28;20130;-78
2022/11/27 13:55:58;;;;;;;8.65;3.67;;;;;;;;;;5058786;28;20028;-78
2022/11/27 13:58:28;;;;;;;6.70;3.55;;;;;;;;;;5062014;28;20008;-77
2022/11/27 14:00:54;;;;;;;6.70;3.35;;;;;;;;;;5061566;28;20496;-78
2022/11/27 14:03:22;;;;;;;11.20;3.85;;;;;;;;;;5062967;28;20147;-76
2022/11/27 14:05:48;;;;;;;6.05;3.55;;;;;;;;;;5058812;28;20032;-76
2022/11/27 14:08:23;;;;;;;8.73;4.05;;;;;;;;;;5058583;28;20376;-76
2022/11/27 14:10:51;;;;;;;8.20;3.58;;;;;;;;;;5065126;28;20021;-76
2022/11/27 14:13:18;;;;;;;6.05;3.83;;;;;;;;;;5054003;28;20044;-76
2022/11/27 14:15:43;;;;;;;10.45;3.88;;;;;;;;;;5058063;28;20036;-76
2022/11/27 14:18:09;;;;;;;13.68;4.18;;;;;;;;;;5059574;28;20028;-76
2022/11/27 14:20:37;;;;;;;6.85;3.95;;;;;;;;;;5069552;28;20382;-76
2022/11/27 14:23:03;;;;;;;6.82;3.88;;;;;;;;;;5062087;28;20021;-76
2022/11/27 14:25:35;;;;;;;9.90;4.20;;;;;;;;;;5056584;28;20076;-76
2022/11/27 14:28:24;;;;;;;7.80;4.18;;;;;;;;;;5058942;28;20234;-77
2022/11/27 14:30:50;;;;;;;9.98;4.43;;;;;;;;;;5055682;28;20025;-76
2022/11/27 14:33:22;;;;;;;9.73;4.47;;;;;;;;;;5062948;28;20402;-77
2022/11/27 14:35:52;;;;;;;8.02;4.40;;;;;;;;;;5069272;28;20043;-77
2022/11/27 14:38:18;;;;;;;9.83;5.33;;;;;;;;;;5053559;28;20013;-77
2022/11/27 14:40:45;;;;;;;13.45;5.13;;;;;;;;;;5060551;28;20127;-76
2022/11/27 14:43:15;;;;;;;11.93;5.60;;;;;;;;;;5065923;28;20101;-76
2022/11/27 14:45:55;;;;;;;18.55;7.10;;;;;;;;;;5067598;28;20041;-76
2022/11/27 14:48:23;;;;;;;13.07;6.82;;;;;;;;;;5059611;28;20032;-76
2022/11/27 14:50:49;;;;;;;24.60;7.50;;;;;;;;;;5056065;28;20078;-76
2022/11/27 14:53:16;;;;;;;18.75;7.90;;;;;;;;;;5063169;28;20040;-76